Time;durP1;ratioP1;P1;durP2;ratioP2;P2;SDS_P1;SDS_P2;PMS_P1;PMS_P2;Temp;Humidity;BMP_temperature;BMP_pressure;BME280_temperature;BME280_humidity;BME280_pressure;Samples;Min_cycle;Max_cycle;Signal;HPM_P1;HPM_P2
2022/10/12 00:01:01;;;;;;;3.58;2.77;;;;;;;9.34;100.00;100220.41;1677937;83;23176;-48
2022/10/12 00:03:27;;;;;;;6.20;3.05;;;;;;;9.32;100.00;100226.29;1674275;83;21504;-48
2022/10/12 00:06:07;;;;;;;6.45;3.40;;;;;;;9.29;100.00;100221.89;1678307;83;21026;-48
2022/10/12 00:08:33;;;;;;;9.58;3.08;;;;;;;9.29;100.00;100219.20;1678045;83;21002;-48
2022/10/12 00:11:00;;;;;;;6.75;3.35;;;;;;;9.28;100.00;100221.94;1675134;83;21088;-48
2022/10/12 00:13:27;;;;;;;4.83;3.55;;;;;;;9.27;100.00;100219.72;1668662;83;21495;-48
2022/10/12 00:15:54;;;;;;;5.60;3.33;;;;;;;9.26;100.00;100221.14;1676204;83;21608;-48
2022/10/12 00:18:21;;;;;;;4.28;3.05;;;;;;;9.25;100.00;100228.79;1674600;83;21567;-48
2022/10/12 00:20:47;;;;;;;10.48;3.87;;;;;;;9.23;100.00;100224.80;1672316;83;21084;-48
2022/10/12 00:23:14;;;;;;;10.78;4.20;;;;;;;9.22;100.00;100234.26;1671785;83;21140;-48
2022/10/12 00:25:41;;;;;;;6.80;3.90;;;;;;;9.18;100.00;100228.13;1676300;83;21804;-48
2022/10/12 00:28:08;;;;;;;8.55;3.70;;;;;;;9.17;100.00;100228.18;1672305;83;21327;-48
2022/10/12 00:30:36;;;;;;;5.65;4.60;;;;;;;9.13;100.00;100230.55;1674181;83;21073;-48
2022/10/12 00:33:03;;;;;;;6.85;4.05;;;;;;;9.08;100.00;100227.57;1631703;83;21069;-48
2022/10/12 00:35:29;;;;;;;8.28;4.78;;;;;;;9.03;100.00;100233.55;1679125;83;22210;-48
2022/10/12 00:37:55;;;;;;;4.45;3.95;;;;;;;8.99;100.00;100230.57;1673868;83;21939;-48
2022/10/12 00:40:22;;;;;;;9.43;4.65;;;;;;;8.93;100.00;100232.09;1674407;83;21131;-48
2022/10/12 00:42:48;;;;;;;5.35;3.45;;;;;;;8.88;100.00;100237.22;1683064;83;21066;-48
2022/10/12 00:45:15;;;;;;;4.50;3.72;;;;;;;8.84;100.00;100242.30;1676179;83;21111;-48
2022/10/12 00:47:48;;;;;;;6.40;3.33;;;;;;;8.79;100.00;100237.53;1671881;83;21085;-48
2022/10/12 00:50:22;;;;;;;4.10;2.58;;;;;;;8.76;100.00;100238.53;1677286;83;22017;-48
2022/10/12 00:53:10;;;;;;;12.07;3.47;;;;;;;8.72;100.00;100232.38;1680480;83;21051;-48
2022/10/12 00:55:40;;;;;;;6.25;2.77;;;;;;;8.72;100.00;100236.40;1675627;83;21084;-48
2022/10/12 00:58:07;;;;;;;6.50;4.17;;;;;;;8.69;100.00;100236.48;1649470;84;21086;-48
2022/10/12 01:00:34;;;;;;;8.28;3.77;;;;;;;8.67;100.00;100242.39;1675717;83;21057;-48
2022/10/12 01:03:01;;;;;;;6.78;3.92;;;;;;;8.65;100.00;100241.56;1671330;83;21839;-48
2022/10/12 01:05:28;;;;;;;5.95;3.37;;;;;;;8.63;100.00;100247.89;1676380;83;21141;-48
2022/10/12 01:07:54;;;;;;;8.90;4.22;;;;;;;8.60;100.00;100243.95;1672252;83;21092;-48
2022/10/12 01:10:20;;;;;;;5.72;3.85;;;;;;;8.57;100.00;100242.73;1675483;83;21579;-48
2022/10/12 01:12:47;;;;;;;4.22;2.92;;;;;;;8.53;100.00;100251.80;1672891;84;21113;-48
2022/10/12 01:15:14;;;;;;;4.78;3.08;;;;;;;8.46;100.00;100250.23;1675378;83;21788;-48
2022/10/12 01:18:01;;;;;;;4.83;2.70;;;;;;;8.38;100.00;100246.92;1669186;83;21076;-48
2022/10/12 01:21:03;;;;;;;6.20;2.92;;;;;;;8.31;100.00;100255.17;1672294;83;21065;-48
2022/10/12 01:23:35;;;;;;;3.55;2.65;;;;;;;8.23;100.00;100245.57;1672378;83;21145;-48
2022/10/12 01:26:31;;;;;;;7.37;2.22;;;;;;;8.16;100.00;100251.59;1643267;83;21587;-48
2022/10/12 01:29:30;;;;;;;7.90;2.95;;;;;;;8.13;100.00;100247.65;1669750;83;21766;-48
2022/10/12 01:32:19;;;;;;;6.03;2.98;;;;;;;8.08;100.00;100246.89;1662129;83;21599;-48
2022/10/12 01:34:50;;;;;;;6.33;4.08;;;;;;;8.03;100.00;100250.64;1673353;83;21089;-48
2022/10/12 01:37:47;;;;;;;5.33;3.20;;;;;;;7.98;100.00;100259.72;1654991;84;21573;-48
2022/10/12 01:40:25;;;;;;;7.92;2.67;;;;;;;7.94;100.00;100258.04;1711109;81;21061;-49
2022/10/12 01:42:51;;;;;;;7.10;3.05;;;;;;;7.87;100.00;100256.92;1709934;81;21863;-49
2022/10/12 01:45:18;;;;;;;5.00;2.87;;;;;;;7.78;100.00;100252.71;1695554;81;21015;-47
2022/10/12 01:47:48;;;;;;;6.65;3.08;;;;;;;7.72;100.00;100256.92;1714517;81;21037;-48
2022/10/12 01:50:14;;;;;;;7.87;2.60;;;;;;;7.66;100.00;100256.19;1713549;81;21077;-47
2022/10/12 01:52:48;;;;;;;3.72;2.55;;;;;;;7.60;100.00;100255.45;1713311;81;21098;-47
2022/10/12 01:55:39;;;;;;;2.90;2.22;;;;;;;7.55;100.00;100253.84;1710826;81;22827;-46
2022/10/12 01:58:21;;;;;;;7.30;2.42;;;;;;;7.50;100.00;100270.02;1714768;81;21643;-47
2022/10/12 02:01:08;;;;;;;7.00;2.55;;;;;;;7.47;100.00;100271.47;1719345;81;21050;-47
2022/10/12 02:04:03;;;;;;;3.05;2.55;;;;;;;7.46;100.00;100274.17;1703833;80;21544;-47
2022/10/12 02:06:37;;;;;;;6.85;3.02;;;;;;;7.45;100.00;100276.44;1723302;80;21626;-47
2022/10/12 02:09:19;;;;;;;4.97;2.52;;;;;;;7.44;100.00;100276.89;1729179;80;22408;-47
2022/10/12 02:11:45;;;;;;;7.58;3.40;;;;;;;7.45;100.00;100280.00;1736062;80;21950;-47
2022/10/12 02:14:16;;;;;;;3.73;3.30;;;;;;;7.46;100.00;100282.22;1725088;80;21663;-46
2022/10/12 02:16:51;;;;;;;6.93;3.63;;;;;;;7.46;100.00;100279.53;1728725;80;21061;-47
2022/10/12 02:19:23;;;;;;;5.20;3.62;;;;;;;7.46;100.00;100279.53;1726986;80;21750;-46
2022/10/12 02:21:50;;;;;;;7.47;2.50;;;;;;;7.45;100.00;100281.33;1726185;80;22433;-47
2022/10/12 02:24:17;;;;;;;5.17;3.15;;;;;;;7.47;100.00;100279.95;1722632;80;21071;-46
2022/10/12 02:26:43;;;;;;;3.70;3.03;;;;;;;7.47;100.00;100278.16;1724403;80;21337;-48
2022/10/12 02:29:15;;;;;;;5.58;2.72;;;;;;;7.49;100.00;100290.14;1728403;80;21552;-48
2022/10/12 02:31:59;;;;;;;5.30;2.83;;;;;;;7.48;100.00;100291.98;1740773;80;20974;-46
2022/10/12 02:34:33;;;;;;;3.40;2.47;;;;;;;7.46;100.00;100288.91;1726985;80;21753;-46
2022/10/12 02:37:31;;;;;;;3.47;2.87;;;;;;;7.43;100.00;100289.86;1729952;80;20970;-46
2022/10/12 02:40:30;;;;;;;6.00;2.60;;;;;;;7.42;100.00;100296.59;1728080;80;21026;-47
2022/10/12 02:43:03;;;;;;;5.50;3.63;;;;;;;7.39;100.00;100293.56;1728587;80;21053;-49
2022/10/12 02:45:30;;;;;;;4.28;3.27;;;;;;;7.36;100.00;100292.29;1724774;80;21505;-48
2022/10/12 02:47:57;;;;;;;7.47;3.60;;;;;;;7.34;100.00;100292.78;1726851;80;21736;-47
2022/10/12 02:50:23;;;;;;;7.50;3.55;;;;;;;7.32;100.00;100301.77;1724198;80;21089;-47
2022/10/12 02:52:51;;;;;;;6.43;2.30;;;;;;;7.28;100.00;100302.33;1712294;82;21635;-46
2022/10/12 02:55:18;;;;;;;4.87;2.53;;;;;;;7.27;100.00;100306.38;1732173;80;21091;-47
2022/10/12 02:57:45;;;;;;;4.58;3.10;;;;;;;7.23;100.00;100302.89;1723236;80;21104;-47
2022/10/12 03:00:13;;;;;;;4.07;2.43;;;;;;;7.22;100.00;100306.52;1731206;80;22657;-47
2022/10/12 03:02:40;;;;;;;7.10;2.83;;;;;;;7.21;100.00;100309.64;1734562;80;20994;-47
2022/10/12 03:05:07;;;;;;;4.43;3.40;;;;;;;7.21;100.00;100307.43;1727885;80;21077;-46
2022/10/12 03:07:33;;;;;;;3.33;2.60;;;;;;;7.19;100.00;100311.94;1723020;80;21360;-46
2022/10/12 03:09:59;;;;;;;4.40;2.87;;;;;;;7.17;100.00;100317.32;1728219;80;21073;-46
2022/10/12 03:12:28;;;;;;;4.30;2.47;;;;;;;7.16;100.00;100316.02;1723892;80;21949;-46
2022/10/12 03:14:55;;;;;;;4.85;2.80;;;;;;;7.17;100.00;100323.13;1716390;80;21045;-49
2022/10/12 03:17:23;;;;;;;4.33;3.77;;;;;;;7.17;100.00;100331.17;1713929;81;21010;-47
2022/10/12 03:19:51;;;;;;;7.60;3.40;;;;;;;7.15;100.00;100323.62;1719654;80;21085;-47
2022/10/12 03:22:18;;;;;;;6.50;4.22;;;;;;;7.15;100.00;100325.84;1729314;80;21097;-47
2022/10/12 03:24:45;;;;;;;4.97;3.57;;;;;;;7.13;100.00;100331.72;1718542;80;21968;-47
2022/10/12 03:27:12;;;;;;;5.43;3.43;;;;;;;7.10;100.00;100330.45;1719636;80;21108;-48
2022/10/12 03:29:38;;;;;;;6.13;3.17;;;;;;;7.08;100.00;100329.59;1723120;80;21547;-47
2022/10/12 03:32:05;;;;;;;3.90;3.23;;;;;;;7.06;100.00;100338.12;1717906;80;21054;-46
2022/10/12 03:34:32;;;;;;;3.35;2.80;;;;;;;7.02;100.00;100331.09;1719727;80;21046;-48
2022/10/12 03:37:00;;;;;;;5.80;2.90;;;;;;;7.02;100.00;100335.57;1717843;81;21670;-46
2022/10/12 03:39:27;;;;;;;3.87;2.93;;;;;;;6.99;100.00;100333.84;1725532;80;21067;-45
2022/10/12 03:41:53;;;;;;;5.10;3.20;;;;;;;7.00;100.00;100336.06;1719944;80;21642;-47
2022/10/12 03:44:19;;;;;;;3.83;2.30;;;;;;;6.99;100.00;100333.84;1723695;80;21046;-46
2022/10/12 03:46:46;;;;;;;4.25;3.08;;;;;;;6.99;100.00;100338.31;1717706;80;21099;-46
2022/10/12 03:49:12;;;;;;;4.13;3.07;;;;;;;6.99;100.00;100340.98;1723187;80;21943;-46
2022/10/12 03:51:39;;;;;;;8.88;3.10;;;;;;;6.98;100.00;100342.78;1721501;80;21677;-49
2022/10/12 03:54:09;;;;;;;3.43;2.97;;;;;;;7.00;100.00;100335.60;1715452;80;21162;-47
2022/10/12 03:56:40;;;;;;;3.70;2.50;;;;;;;6.99;100.00;100338.31;1719005;80;21539;-49
2022/10/12 03:59:07;;;;;;;6.83;3.03;;;;;;;6.98;100.00;100342.78;1720898;80;21124;-47
2022/10/12 04:01:33;;;;;;;6.83;3.20;;;;;;;6.99;100.00;100343.66;1720768;80;21817;-46
2022/10/12 04:04:00;;;;;;;5.20;3.73;;;;;;;6.95;100.00;100347.34;1722975;80;21488;-47
2022/10/12 04:06:26;;;;;;;7.72;4.75;;;;;;;6.92;100.00;100346.07;1711011;81;21046;-47
2022/10/12 04:08:52;;;;;;;4.65;3.37;;;;;;;6.88;100.00;100342.61;1716019;81;21078;-45
2022/10/12 04:11:19;;;;;;;5.57;3.10;;;;;;;6.87;100.00;100341.30;1712797;81;21659;-48
2022/10/12 04:13:45;;;;;;;4.93;3.80;;;;;;;6.83;100.00;100349.39;1711150;81;21944;-47
2022/10/12 04:16:13;;;;;;;3.90;3.20;;;;;;;6.81;100.00;100348.99;1717829;81;21102;-47
2022/10/12 04:18:40;;;;;;;4.50;3.57;;;;;;;6.77;100.00;100356.23;1665237;84;21053;-46
2022/10/12 04:21:11;;;;;;;8.67;3.13;;;;;;;6.76;100.00;100356.26;1674350;83;21538;-48
2022/10/12 04:23:40;;;;;;;4.93;3.53;;;;;;;6.77;100.00;100355.34;1716762;81;21662;-48
2022/10/12 04:26:07;;;;;;;6.43;3.20;;;;;;;6.76;100.00;100362.49;1711418;81;21904;-45
2022/10/12 04:28:34;;;;;;;5.40;3.43;;;;;;;6.78;100.00;100362.47;1714800;81;21574;-47
2022/10/12 04:31:01;;;;;;;5.70;3.35;;;;;;;6.79;100.00;100361.09;1711699;81;21065;-47
2022/10/12 04:33:27;;;;;;;9.90;3.63;;;;;;;6.82;100.00;100370.83;1710863;81;21058;-48
2022/10/12 04:35:54;;;;;;;6.12;3.22;;;;;;;6.84;100.00;100364.53;1712851;81;21049;-49
2022/10/12 04:38:20;;;;;;;7.07;3.40;;;;;;;6.88;100.00;100376.52;1716006;81;21908;-47
2022/10/12 04:40:48;;;;;;;7.53;3.13;;;;;;;6.90;100.00;100373.32;1715615;81;21100;-46
2022/10/12 04:43:15;;;;;;;4.07;3.30;;;;;;;6.94;100.00;100379.03;1711860;81;21030;-46
2022/10/12 04:45:41;;;;;;;5.53;3.83;;;;;;;6.97;100.00;100376.30;1714023;81;21649;-48
2022/10/12 04:48:08;;;;;;;4.10;3.10;;;;;;;7.01;100.00;100375.30;1711939;81;21666;-45
2022/10/12 04:50:35;;;;;;;7.73;4.27;;;;;;;7.05;100.00;100374.32;1709789;81;21967;-46
2022/10/12 04:53:02;;;;;;;3.17;2.62;;;;;;;7.10;100.00;100381.31;1713827;81;21003;-46
2022/10/12 04:55:28;;;;;;;7.62;4.25;;;;;;;7.13;100.00;100375.89;1708259;81;21341;-46
2022/10/12 04:57:54;;;;;;;9.63;3.63;;;;;;;7.18;100.00;100384.68;1717787;81;22205;-47
2022/10/12 05:00:21;;;;;;;7.25;2.92;;;;;;;7.23;100.00;100385.05;1717354;81;21085;-48
2022/10/12 05:02:48;;;;;;;5.47;3.73;;;;;;;7.27;100.00;100384.91;1715272;81;21872;-46
2022/10/12 05:05:14;;;;;;;4.42;4.05;;;;;;;7.29;100.00;100394.26;1738173;81;21038;-46
2022/10/12 05:07:41;;;;;;;9.50;4.22;;;;;;;7.30;100.00;100387.98;1661505;84;21050;-46
2022/10/12 05:10:08;;;;;;;5.65;4.42;;;;;;;7.34;100.00;100397.69;1714440;81;21058;-47
2022/10/12 05:12:34;;;;;;;9.10;3.98;;;;;;;7.36;100.00;100403.89;1719868;81;21061;-46
2022/10/12 05:15:03;;;;;;;8.65;4.17;;;;;;;7.40;100.00;100408.27;1712195;81;21073;-46
2022/10/12 05:17:31;;;;;;;7.55;5.10;;;;;;;7.46;100.00;100404.97;1714219;81;21111;-48
2022/10/12 05:19:57;;;;;;;4.45;4.03;;;;;;;7.56;100.00;100402.95;1714440;81;21547;-46
2022/10/12 05:22:24;;;;;;;6.55;4.33;;;;;;;7.65;100.00;100405.84;1711660;81;21130;-49
2022/10/12 05:24:50;;;;;;;5.33;4.42;;;;;;;7.75;100.00;100408.67;1719905;81;21117;-45
2022/10/12 05:27:17;;;;;;;7.15;3.58;;;;;;;7.85;100.00;100410.20;1719579;81;22597;-47
2022/10/12 05:29:44;;;;;;;4.78;4.35;;;;;;;7.96;100.00;100409.46;1712995;81;21627;-45
2022/10/12 05:32:11;;;;;;;5.83;4.33;;;;;;;8.08;100.00;100404.23;1711064;81;21509;-45
2022/10/12 05:34:38;;;;;;;5.22;4.45;;;;;;;8.16;100.00;100410.27;1705805;81;21065;-46
2022/10/12 05:37:05;;;;;;;4.33;3.98;;;;;;;8.24;100.00;100405.10;1712657;81;21085;-47
2022/10/12 05:39:31;;;;;;;6.00;4.97;;;;;;;8.34;100.00;100410.63;1717505;81;22950;-47
2022/10/12 05:41:58;;;;;;;9.10;5.03;;;;;;;8.44;100.00;100415.73;1720131;81;21154;-45
2022/10/12 05:44:27;;;;;;;7.22;5.35;;;;;;;8.51;100.00;100409.25;1711094;81;21038;-46
2022/10/12 05:46:53;;;;;;;7.65;4.10;;;;;;;8.60;100.00;100425.09;1714107;81;21057;-46
2022/10/12 05:49:20;;;;;;;6.15;4.97;;;;;;;8.67;100.00;100419.98;1711644;81;21069;-48
2022/10/12 05:51:46;;;;;;;10.28;5.35;;;;;;;8.75;100.00;100426.00;1718323;81;22513;-45
2022/10/12 05:54:13;;;;;;;11.15;5.33;;;;;;;8.81;100.00;100428.95;1707420;81;21025;-45
2022/10/12 05:56:39;;;;;;;9.05;5.75;;;;;;;8.84;100.00;100429.75;1711361;81;21055;-46
2022/10/12 05:59:05;;;;;;;7.90;4.28;;;;;;;8.87;100.00;100430.09;1711339;81;21517;-46
2022/10/12 06:01:32;;;;;;;6.37;4.37;;;;;;;8.88;100.00;100434.08;1712492;81;21118;-48
2022/10/12 06:03:58;;;;;;;8.73;4.70;;;;;;;8.92;100.00;100437.56;1711443;81;21891;-48
2022/10/12 06:06:25;;;;;;;5.58;4.28;;;;;;;8.96;100.00;100441.90;1715309;80;21092;-45
2022/10/12 06:08:51;;;;;;;9.75;5.53;;;;;;;8.99;100.00;100448.53;1720113;80;21034;-45
2022/10/12 06:11:17;;;;;;;4.97;4.45;;;;;;;9.03;100.00;100447.48;1717765;80;21120;-46
2022/10/12 06:13:44;;;;;;;8.75;5.00;;;;;;;9.04;100.00;100450.13;1723131;80;21089;-46
2022/10/12 06:16:10;;;;;;;5.12;4.70;;;;;;;9.07;100.00;100455.42;1715739;80;21938;-46
2022/10/12 06:18:37;;;;;;;5.35;4.85;;;;;;;9.10;100.00;100461.17;1718894;80;21291;-45
2022/10/12 06:21:04;;;;;;;5.97;5.22;;;;;;;9.13;100.00;100453.46;1718234;81;21406;-46
2022/10/12 06:23:30;;;;;;;5.97;5.37;;;;;;;9.17;100.00;100461.39;1719907;81;21084;-48
2022/10/12 06:25:57;;;;;;;7.22;5.22;;;;;;;9.22;100.00;100463.92;1720932;80;21037;-46
2022/10/12 06:28:23;;;;;;;7.83;5.67;;;;;;;9.26;100.00;100462.91;1718103;80;21884;-48
2022/10/12 06:30:58;;;;;;;6.90;6.25;;;;;;;9.31;100.00;100469.00;1720083;80;21085;-46
2022/10/12 06:33:26;;;;;;;10.58;6.00;;;;;;;9.34;100.00;100464.89;1721396;80;21053;-45
2022/10/12 06:35:54;;;;;;;9.15;6.30;;;;;;;9.34;100.00;100464.89;1720408;80;21486;-47
2022/10/12 06:38:20;;;;;;;6.33;5.40;;;;;;;9.34;100.00;100468.92;1723807;80;21031;-46
2022/10/12 06:40:47;;;;;;;6.12;5.35;;;;;;;9.36;100.00;100477.32;1716673;80;21931;-45
2022/10/12 06:43:13;;;;;;;10.30;5.50;;;;;;;9.41;100.00;100475.85;1720935;80;21041;-46
2022/10/12 06:47:53;;;;;;;7.77;6.23;;;;;;;9.58;100.00;100482.02;1771802;78;22579;-45
2022/10/12 06:50:19;;;;;;;9.15;6.55;;;;;;;9.58;100.00;100482.02;1745938;80;21081;-45
2022/10/12 06:52:46;;;;;;;9.90;5.90;;;;;;;9.63;100.00;100482.27;1740847;80;21318;-45
2022/10/12 06:55:13;;;;;;;5.75;5.10;;;;;;;9.70;100.00;100483.83;1707788;81;21744;-46
2022/10/12 06:57:40;;;;;;;9.00;6.05;;;;;;;9.80;100.00;100485.28;1684739;83;21331;-46
2022/10/12 07:00:07;;;;;;;7.62;5.78;;;;;;;9.91;100.00;100486.73;1676147;83;21093;-48
2022/10/12 07:02:35;;;;;;;9.20;5.37;;;;;;;9.94;100.00;100484.84;1682392;83;22450;-46
2022/10/12 07:05:02;;;;;;;6.75;5.80;;;;;;;9.95;100.00;100491.09;1679630;83;21948;-45
2022/10/12 07:07:31;;;;;;;9.75;7.03;;;;;;;9.94;100.00;100493.38;1677727;83;21109;-46
2022/10/12 07:09:58;;;;;;;9.73;7.33;;;;;;;9.96;100.00;100492.83;1668616;83;21400;-47
2022/10/12 07:12:25;;;;;;;7.15;6.40;;;;;;;9.97;100.00;100494.59;1686034;82;21872;-47
2022/10/12 07:14:53;;;;;;;7.70;6.25;;;;;;;9.95;100.00;100500.05;1686452;82;21061;-46
2022/10/12 07:17:20;;;;;;;9.28;6.92;;;;;;;10.00;100.00;100501.22;1683203;82;21902;-46
2022/10/12 07:19:46;;;;;;;9.63;5.58;;;;;;;10.07;100.00;100498.27;1691063;82;21048;-47
2022/10/12 07:22:13;;;;;;;6.95;6.25;;;;;;;10.14;100.00;100502.50;1683621;82;21269;-46
2022/10/12 07:24:39;;;;;;;8.50;6.83;;;;;;;10.21;100.00;100502.73;1684021;82;21754;-46
2022/10/12 07:27:08;;;;;;;7.92;6.92;;;;;;;10.28;100.00;100498.50;1687071;82;21084;-48
2022/10/12 07:29:36;;;;;;;9.70;7.00;;;;;;;10.35;100.00;100508.11;1659785;82;21814;-49
2022/10/12 07:32:02;;;;;;;9.50;7.35;;;;;;;10.40;100.00;100506.13;1690587;82;21026;-48
2022/10/12 07:34:29;;;;;;;7.67;5.90;;;;;;;10.44;100.00;100507.78;1688238;82;21065;-44
2022/10/12 07:36:56;;;;;;;8.80;7.40;;;;;;;10.46;100.00;100501.39;1689041;82;21052;-46
2022/10/12 07:39:23;;;;;;;7.17;6.53;;;;;;;10.48;100.00;100507.61;1690679;82;21071;-46
2022/10/12 07:41:51;;;;;;;13.20;6.67;;;;;;;10.46;100.00;100506.77;1688091;82;21229;-46
2022/10/12 07:44:18;;;;;;;11.22;6.35;;;;;;;10.46;100.00;100505.92;1689756;82;21068;-47
2022/10/12 07:46:45;;;;;;;9.55;6.08;;;;;;;10.48;100.00;100504.91;1685522;82;22226;-46
2022/10/12 07:49:13;;;;;;;7.85;7.05;;;;;;;10.55;100.00;100506.91;1671957;83;21121;-48
2022/10/12 07:51:39;;;;;;;6.67;5.40;;;;;;;10.62;100.00;100503.09;1672915;83;21531;-47
2022/10/12 07:54:06;;;;;;;9.48;6.10;;;;;;;10.68;100.00;100508.70;1676431;83;21840;-46
2022/10/12 07:56:32;;;;;;;9.05;5.97;;;;;;;10.72;100.00;100504.48;1672485;83;21105;-46
2022/10/12 07:58:59;;;;;;;8.30;5.40;;;;;;;10.79;100.00;100506.04;1675183;83;21069;-45
2022/10/12 08:01:31;;;;;;;6.12;5.50;;;;;;;10.87;100.00;100503.05;1646239;83;21389;-47
2022/10/12 08:03:58;;;;;;;8.50;5.30;;;;;;;10.96;100.00;100501.37;1675755;83;21100;-48
2022/10/12 08:06:29;;;;;;;5.95;4.75;;;;;;;11.04;100.00;100506.45;1673985;83;21948;-47
2022/10/12 08:08:57;;;;;;;5.90;4.55;;;;;;;11.10;100.00;100507.09;1677834;83;21089;-45
2022/10/12 08:11:23;;;;;;;7.20;4.45;;;;;;;11.17;100.00;100506.38;1670675;83;21065;-45
2022/10/12 08:13:50;;;;;;;6.15;4.80;;;;;;;11.26;100.00;100503.33;1678922;83;21105;-48
2022/10/12 08:16:19;;;;;;;8.75;5.17;;;;;;;11.31;100.00;100506.25;1675701;83;21809;-47
2022/10/12 08:18:47;;;;;;;5.67;4.50;;;;;;;11.37;100.00;100502.45;1718343;81;22493;-48
2022/10/12 08:21:14;;;;;;;6.30;3.80;;;;;;;11.44;100.00;100505.77;1711274;81;21686;-47
2022/10/12 08:23:40;;;;;;;7.92;3.62;;;;;;;11.51;100.00;100501.89;1715564;81;21527;-46
2022/10/12 08:26:07;;;;;;;5.75;4.00;;;;;;;11.58;100.00;100504.74;1675988;83;21100;-46
2022/10/12 08:28:34;;;;;;;5.42;3.33;;;;;;;11.64;100.00;100502.70;1713768;81;21081;-48
2022/10/12 08:31:09;;;;;;;4.33;3.52;;;;;;;11.70;100.00;100502.44;1715896;81;21997;-46
2022/10/12 08:33:36;;;;;;;4.37;3.67;;;;;;;11.77;100.00;100504.91;1714939;81;20990;-46
2022/10/12 08:36:04;;;;;;;8.35;3.10;;;;;;;11.85;100.00;100509.52;1717986;81;21003;-45
2022/10/12 08:38:30;;;;;;;5.47;3.90;;;;;;;11.93;100.00;100501.51;1717511;81;21015;-45
2022/10/12 08:41:21;;;;;;;5.35;2.35;;;;;;;11.99;100.00;100499.89;1716926;81;21049;-46
2022/10/12 08:43:59;;;;;;;3.58;1.85;;;;;;;12.04;100.00;100508.69;1716982;81;21889;-47
2022/10/12 08:46:25;;;;;;;4.53;2.05;;;;;;;12.10;100.00;100502.14;1720550;80;21089;-47
2022/10/12 08:49:04;;;;;;;3.20;1.40;;;;;;;12.18;100.00;100500.47;1726528;80;20975;-47
2022/10/12 08:51:31;;;;;;;4.35;1.75;;;;;;;12.26;100.00;100502.36;1728494;80;21021;-46
2022/10/12 08:54:12;;;;;;;7.17;2.40;;;;;;;12.43;100.00;100505.20;1703460;80;21001;-46
2022/10/12 08:59:19;;;;;;;2.87;1.33;;;;;;;12.50;100.00;100497.27;1851036;75;22483;-46
2022/10/12 09:02:23;;;;;;;4.45;1.62;;;;;;;12.58;100.00;100496.92;1838908;75;21060;-45
2022/10/12 09:05:03;;;;;;;4.83;1.95;;;;;;;12.58;100.00;100496.92;1838779;75;21809;-45
2022/10/12 09:07:39;;;;;;;3.12;1.20;;;;;;;12.68;100.00;100503.64;1801432;77;21511;-47
2022/10/12 09:10:22;;;;;;;5.25;1.47;;;;;;;12.74;100.00;100504.73;1775237;78;20990;-48
2022/10/12 09:13:12;;;;;;;2.77;1.50;;;;;;;12.75;100.00;100494.34;1775803;78;20988;-49
2022/10/12 09:16:06;;;;;;;2.75;1.00;;;;;;;12.74;100.00;100490.76;1769450;78;22165;-47
2022/10/12 09:18:40;;;;;;;4.70;1.17;;;;;;;12.74;100.00;100490.76;1753861;79;22670;-48
2022/10/12 09:21:15;;;;;;;6.83;1.80;;;;;;;12.79;100.00;100496.81;1801598;77;20975;-48
2022/10/12 09:23:43;;;;;;;3.05;1.35;;;;;;;12.86;100.00;100493.36;1770283;78;20960;-48
2022/10/12 09:26:17;;;;;;;2.17;1.30;;;;;;;12.89;100.00;100495.45;1768192;78;21760;-48
2022/10/12 09:28:54;;;;;;;;;;;;;;;12.89;100.00;100495.45;1767572;78;21093;-49
2022/10/12 09:31:35;;;;;;;6.78;1.02;;;;;;;12.88;100.00;100497.75;1768779;78;23389;-48
2022/10/12 09:34:04;;;;;;;3.75;1.62;;;;;;;12.92;100.00;100486.81;1770493;78;21032;-49
2022/10/12 09:36:34;;;;;;;3.90;1.20;;;;;;;12.98;100.00;100494.16;1801537;77;21466;-48
2022/10/12 09:39:08;;;;;;;3.87;0.80;;;;;;;13.05;100.00;100470.41;1793398;77;21156;-48
2022/10/12 09:41:38;;;;;;;4.25;1.10;;;;;;;13.12;100.00;100483.56;1796789;77;28569;-50
2022/10/12 09:44:05;;;;;;;2.95;0.90;;;;;;;13.21;100.00;100484.52;1775297;78;21862;-50
2022/10/12 09:46:40;;;;;;;2.77;0.70;;;;;;;13.27;100.00;100491.95;1795142;77;21017;-50
2022/10/12 09:49:07;;;;;;;1.92;0.70;;;;;;;13.32;100.00;100495.30;1796011;77;21583;-49
2022/10/12 09:51:34;;;;;;;5.03;0.80;;;;;;;13.36;100.00;100491.48;1797272;77;22620;-50
2022/10/12 09:54:04;;;;;;;6.28;0.90;;;;;;;13.37;100.00;100491.42;1801612;77;21068;-50
2022/10/12 09:56:43;;;;;;;3.05;0.82;;;;;;;13.43;100.00;100487.56;1800168;77;21910;-50
2022/10/12 09:59:35;;;;;;;3.83;0.80;;;;;;;13.48;100.00;100487.73;1750115;79;21095;-50
2022/10/12 10:02:16;;;;;;;4.92;0.70;;;;;;;13.53;100.00;100505.07;1747585;79;21619;-49
2022/10/12 10:04:45;;;;;;;5.03;0.85;;;;;;;13.57;100.00;100498.58;1745728;79;21052;-48
2022/10/12 10:07:30;;;;;;;3.90;0.72;;;;;;;13.59;100.00;100490.80;1755891;79;21427;-48
2022/10/12 10:10:15;;;;;;;3.92;0.80;;;;;;;13.64;100.00;100484.67;1754448;79;21784;-48
2022/10/12 10:12:57;;;;;;;2.42;0.62;;;;;;;13.70;100.00;100481.25;1747081;79;21088;-48
2022/10/12 10:15:33;;;;;;;2.35;0.53;;;;;;;13.77;100.00;100484.08;1746101;79;21064;-48
2022/10/12 10:18:02;;;;;;;3.67;0.75;;;;;;;13.85;100.00;100473.75;1746312;79;21044;-48
2022/10/12 10:20:52;;;;;;;4.15;0.60;;;;;;;13.94;100.00;100475.52;1756131;79;21088;-49
2022/10/12 10:23:40;;;;;;;2.50;0.60;;;;;;;14.05;100.00;100483.55;1780551;78;21809;-48
2022/10/12 10:26:09;;;;;;;3.33;0.50;;;;;;;14.12;100.00;100480.95;1793439;78;21483;-48
2022/10/12 10:28:37;;;;;;;6.85;0.70;;;;;;;14.19;100.00;100474.27;1786416;78;21566;-49
2022/10/12 10:31:16;;;;;;;3.60;0.50;;;;;;;14.25;100.00;100480.23;1738442;80;21353;-48
2022/10/12 10:33:43;;;;;;;1.37;0.50;;;;;;;14.30;100.00;100482.20;1740406;80;21545;-49
2022/10/12 10:36:23;;;;;;;1.77;0.60;;;;;;;14.33;100.00;100476.64;1758362;79;21575;-48
2022/10/12 10:39:04;;;;;;;2.58;0.50;;;;;;;14.32;100.00;100484.84;1754307;79;21531;-48
2022/10/12 10:41:35;;;;;;;1.35;0.50;;;;;;;14.29;100.00;100483.16;1748026;79;21044;-48
2022/10/12 10:44:03;;;;;;;3.17;0.55;;;;;;;14.30;100.00;100482.20;1792510;77;21060;-48
2022/10/12 10:46:32;;;;;;;2.62;0.47;;;;;;;14.35;100.00;100488.75;1791920;77;21099;-49
2022/10/12 10:49:05;;;;;;;3.08;0.50;;;;;;;14.34;100.00;100484.30;1794597;77;22529;-48
2022/10/12 10:51:52;;;;;;;3.70;0.50;;;;;;;14.29;100.00;100487.73;1791867;77;21032;-48
2022/10/12 10:54:33;;;;;;;3.10;0.50;;;;;;;14.23;100.00;100490.25;1790288;77;21115;-49
2022/10/12 10:57:12;;;;;;;7.00;0.80;;;;;;;14.18;100.00;100489.62;1796304;77;22378;-48
2022/10/12 10:59:55;;;;;;;2.17;0.50;;;;;;;14.19;100.00;100487.33;1796951;77;21054;-49
2022/10/12 11:02:37;;;;;;;2.92;0.53;;;;;;;14.20;100.00;100486.38;1799631;77;21681;-49
2022/10/12 11:05:18;;;;;;;4.17;0.60;;;;;;;14.20;100.00;100480.08;1797494;77;21455;-48
2022/10/12 11:09:55;;;;;;;2.60;0.40;;;;;;;14.22;100.00;100479.50;1788756;77;26265;-48
2022/10/12 11:12:27;;;;;;;1.92;0.50;;;;;;;14.20;100.00;100489.56;1770867;78;21778;-48
2022/10/12 11:14:58;;;;;;;2.00;0.65;;;;;;;14.17;100.00;100479.75;1765923;78;21981;-48
2022/10/12 11:17:35;;;;;;;1.10;0.40;;;;;;;14.17;100.00;100478.40;1764808;78;21633;-49
2022/10/12 11:20:29;;;;;;;1.52;0.40;;;;;;;14.21;100.00;100484.52;1743819;78;21498;-48
2022/10/12 11:23:06;;;;;;;1.37;0.50;;;;;;;14.23;100.00;100479.42;1765842;78;21122;-49
2022/10/12 11:25:41;;;;;;;1.57;0.50;;;;;;;14.22;100.00;100474.96;1733499;80;21018;-48
2022/10/12 11:28:10;;;;;;;3.87;0.60;;;;;;;14.23;100.00;100479.42;1723797;81;22087;-49
2022/10/12 11:30:44;;;;;;;5.17;0.50;;;;;;;14.25;100.00;100484.30;1720928;81;21614;-48
2022/10/12 11:33:16;;;;;;;1.90;0.60;;;;;;;14.21;100.00;100484.03;1719469;82;21548;-48
2022/10/12 11:35:45;;;;;;;1.20;0.50;;;;;;;14.12;100.00;100483.16;1715215;81;21084;-48
2022/10/12 11:38:30;;;;;;;2.40;0.50;;;;;;;14.04;100.00;100485.38;1708798;82;21072;-48
2022/10/12 11:41:19;;;;;;;1.17;0.60;;;;;;;13.95;100.00;100483.16;1712303;81;21941;-48
2022/10/12 11:43:56;;;;;;;4.90;0.70;;;;;;;13.89;100.00;100488.39;1711939;81;21809;-48
2022/10/12 11:46:39;;;;;;;3.25;0.78;;;;;;;13.84;100.00;100482.34;1712688;82;21048;-49